createdAt,value
2022-10-18T00:01:02.434Z,8.40
2022-10-18T00:03:30.538Z,9.17
2022-10-18T00:05:59.017Z,9.40
2022-10-18T00:08:27.396Z,9.45
2022-10-18T00:10:56.761Z,9.10
2022-10-18T00:13:24.889Z,9.45
2022-10-18T00:15:55.005Z,8.20
2022-10-18T00:18:23.312Z,9.00
2022-10-18T00:20:58.931Z,8.48
2022-10-18T00:23:27.833Z,9.63
2022-10-18T00:26:05.621Z,9.40
2022-10-18T00:28:34.959Z,8.93
2022-10-18T00:31:14.648Z,8.88
2022-10-18T00:33:43.256Z,8.85
2022-10-18T00:36:12.100Z,9.43
2022-10-18T00:38:40.623Z,8.57
2022-10-18T00:41:11.884Z,9.02
2022-10-18T00:43:59.190Z,9.63
2022-10-18T00:46:29.300Z,9.15
2022-10-18T00:48:59.412Z,9.90
2022-10-18T00:51:31.436Z,9.38
2022-10-18T00:53:59.846Z,9.13
2022-10-18T00:56:29.876Z,10.43
2022-10-18T00:58:58.680Z,9.35
2022-10-18T01:01:28.430Z,9.55
2022-10-18T01:03:57.388Z,9.65
2022-10-18T01:06:26.136Z,9.80
2022-10-18T01:09:12.884Z,9.57
2022-10-18T01:11:57.035Z,10.10
2022-10-18T01:14:36.656Z,9.73
2022-10-18T01:17:13.267Z,10.18
2022-10-18T01:20:03.253Z,9.45
2022-10-18T01:22:39.050Z,9.73
2022-10-18T01:25:23.970Z,9.23
2022-10-18T01:28:02.072Z,9.85
2022-10-18T01:30:43.895Z,9.50
2022-10-18T01:33:24.019Z,9.77
2022-10-18T01:35:58.712Z,10.25
2022-10-18T01:38:27.371Z,9.82
2022-10-18T01:40:56.360Z,9.32
2022-10-18T01:43:25.481Z,9.75
2022-10-18T01:48:24.937Z,9.55
2022-10-18T01:50:54.107Z,9.55
2022-10-18T01:58:32.046Z,8.88
2022-10-18T02:03:48.186Z,8.80
2022-10-18T02:06:22.546Z,9.60
2022-10-18T02:08:56.982Z,9.43
2022-10-18T02:11:26.055Z,9.10
2022-10-18T02:16:29.596Z,7.63
2022-10-18T02:19:02.069Z,8.32
2022-10-18T02:21:31.935Z,8.40
2022-10-18T02:24:03.556Z,8.05
2022-10-18T02:26:31.614Z,8.13
2022-10-18T02:28:59.587Z,9.07
2022-10-18T02:31:33.126Z,8.13
2022-10-18T02:34:06.070Z,7.78
2022-10-18T02:36:39.949Z,9.13
2022-10-18T02:39:14.361Z,7.55
2022-10-18T02:41:43.574Z,7.82
2022-10-18T02:44:11.605Z,8.00
2022-10-18T02:46:41.965Z,8.10
2022-10-18T02:49:09.876Z,8.55
2022-10-18T02:51:37.832Z,7.55
2022-10-18T02:54:06.415Z,7.93
2022-10-18T02:56:34.438Z,8.65
2022-10-18T02:59:03.697Z,8.02
2022-10-18T03:01:33.101Z,7.50
2022-10-18T03:04:03.060Z,7.90
2022-10-18T03:06:31.060Z,7.75
2022-10-18T03:08:59.154Z,8.35
2022-10-18T03:11:27.091Z,7.13
2022-10-18T03:13:54.980Z,8.55
2022-10-18T03:16:22.935Z,8.05
2022-10-18T03:18:50.914Z,8.73
2022-10-18T03:21:20.383Z,8.70
2022-10-18T03:23:48.355Z,8.13
2022-10-18T03:26:16.288Z,9.00
2022-10-18T03:28:44.202Z,8.63
2022-10-18T03:31:12.264Z,8.50
2022-10-18T03:33:40.289Z,8.15
2022-10-18T03:36:08.393Z,7.50
2022-10-18T03:38:37.778Z,7.78
2022-10-18T03:41:06.018Z,7.72
2022-10-18T03:43:33.952Z,8.07
2022-10-18T03:46:02.116Z,8.13
2022-10-18T03:48:30.079Z,7.77
2022-10-18T03:50:58.166Z,7.93
2022-10-18T03:53:26.091Z,8.07
2022-10-18T03:55:56.775Z,8.13
2022-10-18T03:58:25.120Z,7.88
2022-10-18T04:00:54.138Z,8.18
2022-10-18T04:03:23.807Z,15.20
2022-10-18T04:05:51.850Z,13.38
2022-10-18T04:08:19.868Z,7.63
2022-10-18T04:10:47.960Z,7.35
2022-10-18T04:13:17.292Z,7.10
2022-10-18T04:15:45.302Z,7.53
2022-10-18T04:18:13.275Z,7.22
2022-10-18T04:20:41.231Z,7.05
2022-10-18T04:23:09.165Z,6.85
2022-10-18T04:25:37.158Z,6.82
2022-10-18T04:28:05.276Z,6.93
2022-10-18T04:30:34.730Z,6.53
2022-10-18T04:33:02.867Z,8.13
2022-10-18T04:35:30.820Z,11.73
2022-10-18T04:37:58.767Z,6.45
2022-10-18T04:40:26.751Z,6.57
2022-10-18T04:42:54.871Z,6.43
2022-10-18T04:45:22.871Z,6.30
2022-10-18T04:47:52.232Z,6.32
2022-10-18T04:50:20.175Z,6.63
2022-10-18T04:55:21.696Z,5.93
2022-10-18T04:57:49.695Z,6.65
2022-10-18T05:00:17.832Z,6.55
2022-10-18T05:02:45.806Z,6.25
2022-10-18T05:05:15.141Z,6.07
2022-10-18T05:07:43.279Z,6.78
2022-10-18T05:10:11.377Z,6.75
2022-10-18T05:12:39.314Z,7.18
2022-10-18T05:15:07.930Z,6.80
2022-10-18T05:17:35.914Z,7.05
2022-10-18T05:20:04.162Z,8.15
2022-10-18T05:22:33.943Z,8.40
2022-10-18T05:25:02.010Z,7.43
2022-10-18T05:27:30.130Z,7.45
2022-10-18T05:30:01.241Z,7.85
2022-10-18T05:32:32.907Z,7.78
2022-10-18T05:35:01.253Z,7.95
2022-10-18T05:37:29.233Z,7.20
2022-10-18T05:39:58.570Z,7.18
2022-10-18T05:42:26.716Z,7.45
2022-10-18T05:44:54.638Z,7.30
2022-10-18T05:47:22.811Z,7.38
2022-10-18T05:53:06.837Z,7.47
2022-10-18T05:56:50.826Z,7.07
2022-10-18T05:59:20.269Z,6.45
2022-10-18T06:01:48.217Z,7.40
2022-10-18T06:04:17.915Z,7.05
2022-10-18T06:06:45.962Z,7.30
2022-10-18T06:09:13.909Z,7.60
2022-10-18T06:11:41.861Z,7.38
2022-10-18T06:14:10.848Z,8.20
2022-10-18T06:16:40.103Z,7.82
2022-10-18T06:19:08.479Z,7.88
2022-10-18T06:21:36.413Z,8.88
2022-10-18T06:24:04.413Z,8.50
2022-10-18T06:26:34.581Z,8.70
2022-10-18T06:29:02.567Z,7.70
2022-10-18T06:31:30.573Z,9.70
2022-10-18T06:34:00.085Z,9.10
2022-10-18T06:36:28.409Z,9.35
2022-10-18T06:38:56.790Z,8.40
2022-10-18T06:41:24.917Z,7.90
2022-10-18T06:43:56.964Z,7.32
2022-10-18T06:46:25.996Z,7.07
2022-10-18T06:51:23.078Z,6.05
2022-10-18T06:53:59.702Z,6.57
2022-10-18T06:56:39.415Z,6.30
2022-10-18T06:59:07.602Z,6.07
2022-10-18T07:01:35.743Z,5.68
2022-10-18T07:04:03.978Z,5.80
2022-10-18T07:06:33.317Z,6.22
2022-10-18T07:09:03.047Z,5.15
2022-10-18T07:11:30.977Z,6.18
2022-10-18T07:14:03.207Z,5.82
2022-10-18T07:16:32.358Z,5.82
2022-10-18T07:19:00.433Z,5.55
2022-10-18T07:21:28.912Z,5.57
2022-10-18T07:23:58.676Z,5.93
2022-10-18T07:26:29.145Z,5.97
2022-10-18T07:29:00.408Z,5.70
2022-10-18T07:31:29.307Z,5.07
2022-10-18T07:33:57.514Z,5.95
2022-10-18T07:36:25.921Z,5.03
2022-10-18T07:38:54.660Z,5.70
2022-10-18T07:41:24.450Z,4.93
2022-10-18T07:43:53.848Z,5.13
2022-10-18T07:46:23.303Z,5.38
2022-10-18T07:48:51.699Z,5.32
2022-10-18T07:51:21.056Z,5.00
2022-10-18T07:53:49.434Z,5.38
2022-10-18T07:56:21.045Z,5.22
2022-10-18T07:58:52.433Z,5.78
2022-10-18T08:01:21.764Z,5.57
2022-10-18T08:03:50.146Z,5.57
2022-10-18T08:06:20.156Z,5.75
2022-10-18T08:08:48.604Z,4.82
2022-10-18T08:11:18.861Z,5.35
2022-10-18T08:13:47.210Z,5.45
2022-10-18T08:16:20.444Z,5.22
2022-10-18T08:18:48.511Z,4.90
2022-10-18T08:21:18.203Z,4.55
2022-10-18T08:23:46.536Z,4.32
2022-10-18T08:26:17.044Z,4.35
2022-10-18T08:28:53.708Z,4.60
2022-10-18T08:31:33.042Z,4.70
2022-10-18T08:34:01.050Z,4.55
2022-10-18T08:36:29.134Z,4.25
2022-10-18T08:38:57.081Z,4.20
2022-10-18T08:41:43.468Z,4.63
2022-10-18T08:44:19.242Z,4.10
2022-10-18T08:46:51.210Z,3.85
2022-10-18T08:49:26.743Z,4.93
2022-10-18T08:51:55.289Z,4.63
2022-10-18T08:54:31.200Z,4.28
2022-10-18T08:57:01.832Z,4.03
2022-10-18T08:59:35.148Z,3.92
2022-10-18T09:02:18.664Z,4.15
2022-10-18T09:04:52.982Z,4.03
2022-10-18T09:07:42.916Z,4.22
2022-10-18T09:10:26.823Z,3.83
2022-10-18T09:13:11.609Z,4.07
2022-10-18T09:15:50.032Z,4.10
2022-10-18T09:18:34.401Z,4.00
2022-10-18T09:21:09.803Z,4.45
2022-10-18T09:23:47.401Z,4.10
2022-10-18T09:26:19.511Z,4.03
2022-10-18T09:29:00.091Z,3.70
2022-10-18T09:31:38.022Z,4.18
2022-10-18T09:34:13.615Z,4.13
2022-10-18T09:36:42.496Z,4.72
2022-10-18T09:39:14.140Z,4.13
2022-10-18T09:41:48.617Z,4.00
2022-10-18T09:44:22.214Z,3.95
2022-10-18T09:46:54.580Z,3.72
2022-10-18T09:49:29.371Z,4.13
2022-10-18T09:52:01.138Z,3.55
2022-10-18T09:54:35.244Z,4.25
2022-10-18T09:57:07.780Z,4.03
2022-10-18T09:59:39.624Z,4.00
2022-10-18T10:02:10.874Z,4.10
2022-10-18T10:04:40.204Z,5.05
2022-10-18T10:07:12.976Z,4.30
2022-10-18T10:09:46.155Z,4.05
2022-10-18T10:12:32.109Z,3.70
2022-10-18T10:15:19.942Z,4.10
2022-10-18T10:17:57.347Z,3.85
2022-10-18T10:20:34.050Z,3.78
2022-10-18T10:23:09.632Z,3.88
2022-10-18T10:25:39.204Z,3.88
2022-10-18T10:28:14.398Z,3.60
2022-10-18T10:30:42.398Z,4.03
2022-10-18T10:33:35.141Z,4.30
2022-10-18T10:36:08.110Z,3.55
2022-10-18T10:38:36.077Z,3.85
2022-10-18T10:41:04.049Z,4.10
2022-10-18T10:43:39.107Z,4.10
2022-10-18T10:46:10.640Z,3.55
2022-10-18T10:48:49.001Z,4.05
2022-10-18T10:51:29.865Z,3.75
2022-10-18T10:54:03.377Z,3.42
2022-10-18T10:56:34.185Z,3.88
2022-10-18T10:59:11.314Z,3.88
2022-10-18T11:01:39.488Z,4.10
2022-10-18T11:04:29.552Z,3.88
2022-10-18T11:07:05.858Z,4.10
2022-10-18T11:09:45.332Z,3.80
2022-10-18T11:12:25.034Z,4.07
2022-10-18T11:15:00.692Z,4.05
2022-10-18T11:17:34.007Z,3.47
2022-10-18T11:20:14.535Z,3.63
2022-10-18T11:22:51.148Z,3.38
2022-10-18T11:25:19.297Z,3.60
2022-10-18T11:30:42.856Z,3.85
2022-10-18T11:33:33.604Z,3.75
2022-10-18T11:36:16.593Z,3.65
2022-10-18T11:38:52.003Z,4.07
2022-10-18T11:41:32.354Z,4.13
2022-10-18T11:44:03.714Z,4.13
2022-10-18T11:46:48.827Z,3.97
2022-10-18T11:49:27.448Z,4.00
2022-10-18T11:52:08.771Z,4.18
2022-10-18T11:54:51.477Z,4.10
2022-10-18T11:57:33.295Z,3.95
2022-10-18T12:00:16.762Z,4.75
2022-10-18T12:03:01.873Z,4.30
2022-10-18T12:05:31.401Z,3.78
2022-10-18T12:08:06.235Z,4.00
2022-10-18T12:10:52.603Z,3.63
2022-10-18T12:13:34.319Z,3.85
2022-10-18T12:16:05.276Z,3.87
2022-10-18T12:18:34.627Z,3.95
2022-10-18T12:21:03.657Z,3.80
2022-10-18T12:23:39.179Z,4.10
2022-10-18T12:26:11.694Z,4.10
2022-10-18T12:28:50.113Z,4.22
2022-10-18T12:31:24.072Z,3.90
2022-10-18T12:33:56.287Z,4.30
2022-10-18T12:36:40.663Z,3.90
2022-10-18T12:39:16.486Z,3.95
2022-10-18T12:41:48.893Z,4.00
2022-10-18T12:44:22.236Z,3.83
2022-10-18T12:46:53.408Z,4.15
2022-10-18T12:49:28.615Z,3.75
2022-10-18T12:51:59.561Z,4.20
2022-10-18T12:54:31.144Z,4.13
2022-10-18T12:57:01.892Z,4.40
2022-10-18T12:59:47.757Z,4.10
2022-10-18T13:02:31.953Z,4.60
2022-10-18T13:05:02.398Z,3.83
2022-10-18T13:07:43.401Z,4.25
2022-10-18T13:10:42.183Z,4.22
2022-10-18T13:13:55.159Z,4.20
2022-10-18T13:16:36.755Z,4.07
2022-10-18T13:19:20.850Z,4.10
2022-10-18T13:21:58.021Z,3.95
2022-10-18T13:24:33.684Z,3.93
2022-10-18T13:27:36.772Z,4.57
2022-10-18T13:30:33.898Z,4.72
2022-10-18T13:33:27.652Z,4.35
2022-10-18T13:35:58.256Z,4.22
2022-10-18T13:38:38.235Z,4.38
2022-10-18T13:41:08.699Z,4.50
2022-10-18T13:43:57.841Z,4.50
2022-10-18T13:47:20.320Z,4.70
2022-10-18T13:50:27.642Z,4.63
2022-10-18T13:53:37.282Z,4.30
2022-10-18T13:56:26.209Z,4.47
2022-10-18T13:59:14.942Z,4.57
2022-10-18T14:01:57.083Z,4.85
2022-10-18T14:05:10.567Z,4.40
2022-10-18T14:07:45.885Z,4.25
2022-10-18T14:10:43.412Z,4.30
2022-10-18T14:13:21.335Z,4.20
2022-10-18T14:15:51.978Z,4.33
2022-10-18T14:18:27.963Z,4.25
2022-10-18T14:23:45.597Z,4.05
2022-10-18T14:26:16.342Z,3.30
2022-10-18T14:29:00.720Z,4.05
2022-10-18T14:31:29.365Z,4.65
2022-10-18T14:33:59.593Z,4.70
2022-10-18T14:36:30.566Z,4.05
2022-10-18T14:39:00.429Z,3.63
2022-10-18T14:41:29.630Z,3.67
2022-10-18T14:44:18.569Z,3.90
2022-10-18T14:46:48.602Z,3.97
2022-10-18T14:49:20.349Z,3.92
2022-10-18T14:51:51.349Z,3.97
2022-10-18T14:54:25.095Z,4.38
2022-10-18T14:56:56.000Z,4.03
2022-10-18T15:01:59.683Z,4.10
2022-10-18T15:04:33.025Z,4.57
2022-10-18T15:07:03.100Z,4.40
2022-10-18T15:09:32.801Z,4.15
2022-10-18T15:12:01.841Z,4.50
2022-10-18T15:14:36.233Z,4.60
2022-10-18T15:17:21.697Z,4.40
2022-10-18T15:20:01.965Z,4.07
2022-10-18T15:22:34.294Z,4.97
2022-10-18T15:25:14.538Z,5.00
2022-10-18T15:27:46.179Z,4.40
2022-10-18T15:30:20.501Z,4.78
2022-10-18T15:32:50.844Z,4.57
2022-10-18T15:35:26.406Z,5.30
2022-10-18T15:37:56.336Z,4.45
2022-10-18T15:40:42.825Z,4.80
2022-10-18T15:43:37.884Z,5.22
2022-10-18T15:46:07.301Z,5.07
2022-10-18T15:48:38.965Z,5.47
2022-10-18T15:51:09.628Z,4.85
2022-10-18T15:53:45.059Z,5.20
2022-10-18T15:56:32.806Z,5.55
2022-10-18T15:59:04.073Z,5.97
2022-10-18T16:01:38.202Z,5.60
2022-10-18T16:04:10.413Z,5.35
2022-10-18T16:06:40.068Z,5.90
2022-10-18T16:09:08.383Z,5.78
2022-10-18T16:11:36.343Z,5.60
2022-10-18T16:14:04.427Z,5.78
2022-10-18T16:16:32.532Z,6.07
2022-10-18T16:19:01.039Z,6.30
2022-10-18T16:21:31.403Z,6.55
2022-10-18T16:24:01.057Z,6.65
2022-10-18T16:26:30.073Z,6.70
2022-10-18T16:28:59.256Z,6.70
2022-10-18T16:31:28.983Z,7.20
2022-10-18T16:33:57.679Z,8.13
2022-10-18T16:36:29.012Z,8.40
2022-10-18T16:38:57.812Z,9.82
2022-10-18T16:43:55.501Z,10.68
2022-10-18T16:46:27.338Z,11.07
2022-10-18T16:48:56.402Z,11.25
2022-10-18T16:51:25.029Z,10.75
2022-10-18T16:53:53.761Z,12.18
2022-10-18T16:56:23.556Z,11.10
2022-10-18T16:58:53.953Z,9.80
2022-10-18T17:01:23.824Z,10.48
2022-10-18T17:03:52.325Z,11.68
2022-10-18T17:06:22.831Z,11.85
2022-10-18T17:08:51.905Z,13.50
2022-10-18T17:11:21.532Z,12.77
2022-10-18T17:13:49.651Z,9.60
2022-10-18T17:16:25.057Z,9.18
2022-10-18T17:18:53.066Z,8.48
2022-10-18T17:21:21.200Z,8.90
2022-10-18T17:23:49.618Z,7.90
2022-10-18T17:26:34.279Z,8.88
2022-10-18T17:29:05.390Z,10.00
2022-10-18T17:31:35.744Z,8.75
2022-10-18T17:34:04.738Z,8.63
2022-10-18T17:39:01.444Z,9.02
2022-10-18T17:41:29.515Z,8.90
2022-10-18T17:43:57.675Z,8.27
2022-10-18T17:46:25.605Z,8.60
2022-10-18T17:48:55.079Z,7.57
2022-10-18T17:51:23.536Z,8.25
2022-10-18T17:53:51.535Z,8.50
2022-10-18T17:56:19.488Z,8.48
2022-10-18T17:58:51.645Z,8.70
2022-10-18T18:01:21.943Z,7.05
2022-10-18T18:03:50.552Z,7.45
2022-10-18T18:06:21.951Z,8.25
2022-10-18T18:08:50.743Z,7.38
2022-10-18T18:11:18.932Z,7.38
2022-10-18T18:13:47.065Z,7.47
2022-10-18T18:16:17.552Z,7.57
2022-10-18T18:18:46.432Z,8.85
2022-10-18T18:21:14.733Z,8.50
2022-10-18T18:23:44.267Z,7.95
2022-10-18T18:26:14.916Z,8.68
2022-10-18T18:28:43.063Z,8.90
2022-10-18T18:31:13.269Z,9.95
2022-10-18T18:33:41.969Z,9.27
2022-10-18T18:36:10.870Z,9.18
2022-10-18T18:41:29.602Z,9.52
2022-10-18T18:44:00.516Z,8.95
2022-10-18T18:46:32.929Z,8.85
2022-10-18T18:49:00.954Z,9.50
2022-10-18T18:51:29.033Z,9.13
2022-10-18T18:53:56.981Z,8.55
2022-10-18T18:56:26.646Z,8.00
2022-10-18T18:58:56.861Z,8.15
2022-10-18T19:01:27.018Z,7.60
2022-10-18T19:04:03.676Z,8.23
2022-10-18T19:06:34.037Z,8.07
2022-10-18T19:09:04.480Z,8.30
2022-10-18T19:11:35.114Z,8.23
2022-10-18T19:14:06.271Z,8.93
2022-10-18T19:16:36.017Z,9.52
2022-10-18T19:19:09.214Z,8.30
2022-10-18T19:21:40.023Z,8.30
2022-10-18T19:24:16.490Z,9.25
2022-10-18T19:26:49.721Z,10.30
2022-10-18T19:29:28.667Z,10.10
2022-10-18T19:34:27.509Z,9.10
2022-10-18T19:36:55.938Z,9.63
2022-10-18T19:39:25.465Z,11.10
2022-10-18T19:41:56.187Z,10.80
2022-10-18T19:44:27.459Z,11.32
2022-10-18T19:46:55.791Z,10.05
2022-10-18T19:49:24.295Z,10.15
2022-10-18T19:51:52.228Z,9.98
2022-10-18T19:54:20.193Z,10.40
2022-10-18T19:56:48.560Z,8.98
2022-10-18T19:59:18.467Z,8.63
2022-10-18T20:01:47.870Z,9.43
2022-10-18T20:04:16.694Z,8.95
2022-10-18T20:06:45.072Z,8.77
2022-10-18T20:09:17.691Z,8.27
2022-10-18T20:11:48.598Z,7.85
2022-10-18T20:14:16.605Z,8.13
2022-10-18T20:16:44.715Z,8.57
2022-10-18T20:19:14.027Z,13.00
2022-10-18T20:21:42.026Z,11.95
2022-10-18T20:24:11.907Z,8.75
2022-10-18T20:26:40.293Z,8.65
2022-10-18T20:29:08.796Z,9.13
2022-10-18T20:31:39.116Z,9.90
2022-10-18T20:34:08.926Z,9.40
2022-10-18T20:36:38.611Z,9.68
2022-10-18T20:39:07.805Z,8.55
2022-10-18T20:41:38.054Z,9.98
2022-10-18T20:44:10.653Z,9.25
2022-10-18T20:46:39.431Z,11.32
2022-10-18T20:49:09.380Z,10.63
2022-10-18T20:51:38.750Z,9.40
2022-10-18T20:54:11.295Z,10.05
2022-10-18T20:56:40.007Z,9.82
2022-10-18T20:59:10.159Z,8.82
2022-10-18T21:01:39.775Z,9.40
2022-10-18T21:04:09.109Z,9.38
2022-10-18T21:06:41.003Z,8.70
2022-10-18T21:09:11.720Z,8.82
2022-10-18T21:11:42.045Z,9.65
2022-10-18T21:14:12.579Z,9.15
2022-10-18T21:16:41.179Z,10.57
2022-10-18T21:19:12.392Z,8.80
2022-10-18T21:21:44.004Z,8.27
2022-10-18T21:24:12.737Z,8.70
2022-10-18T21:26:41.008Z,9.13
2022-10-18T21:29:09.644Z,9.18
2022-10-18T21:31:40.091Z,9.13
2022-10-18T21:34:10.307Z,9.02
2022-10-18T21:36:38.584Z,9.93
2022-10-18T21:39:09.963Z,9.50
2022-10-18T21:41:38.171Z,10.85
2022-10-18T21:44:09.837Z,11.35
2022-10-18T21:46:39.265Z,9.63
2022-10-18T21:49:08.371Z,9.10
2022-10-18T21:54:04.617Z,9.02
2022-10-18T21:56:35.918Z,8.57
2022-10-18T21:59:04.066Z,9.65
2022-10-18T22:01:33.562Z,9.63
2022-10-18T22:04:08.560Z,8.93
2022-10-18T22:06:37.977Z,9.57
2022-10-18T22:09:08.960Z,9.75
2022-10-18T22:11:41.732Z,9.15
2022-10-18T22:14:10.005Z,10.95
2022-10-18T22:16:38.150Z,10.60
2022-10-18T22:19:07.185Z,9.27
2022-10-18T22:24:07.882Z,10.07
2022-10-18T22:26:39.469Z,9.75
2022-10-18T22:29:18.305Z,10.68
2022-10-18T22:31:47.907Z,9.82
2022-10-18T22:34:17.825Z,10.88
2022-10-18T22:36:46.051Z,11.27
2022-10-18T22:39:15.365Z,10.52
2022-10-18T22:41:44.995Z,11.18
2022-10-18T22:44:14.173Z,11.65
2022-10-18T22:46:42.905Z,10.95
2022-10-18T22:49:12.067Z,11.35
2022-10-18T22:54:07.857Z,10.57
2022-10-18T22:56:35.913Z,12.02
2022-10-18T22:59:05.405Z,10.93
2022-10-18T23:01:33.339Z,11.77
2022-10-18T23:04:02.240Z,11.60
2022-10-18T23:06:31.918Z,11.50
2022-10-18T23:09:01.800Z,11.85
2022-10-18T23:11:30.595Z,11.32
2022-10-18T23:13:58.697Z,11.73
2022-10-18T23:16:29.509Z,12.88
2022-10-18T23:18:59.146Z,12.60
2022-10-18T23:21:28.798Z,11.73
2022-10-18T23:23:57.670Z,11.35
2022-10-18T23:26:28.277Z,11.77
2022-10-18T23:28:56.510Z,12.25
2022-10-18T23:31:28.075Z,11.75
2022-10-18T23:33:57.549Z,11.93
2022-10-18T23:36:25.777Z,12.55
2022-10-18T23:38:54.459Z,12.53
2022-10-18T23:41:23.140Z,13.13
2022-10-18T23:43:51.546Z,11.80
2022-10-18T23:46:20.778Z,12.02
2022-10-18T23:48:50.546Z,12.52
2022-10-18T23:51:19.128Z,13.20
2022-10-18T23:53:47.269Z,12.57
2022-10-18T23:56:17.107Z,13.52
2022-10-18T23:58:45.713Z,13.05
